Airport Name : Greenwood

Other Name : Greenwood

ICAO : CYZX

IATA : YZX

FAA :

Latitude : 44.984444

Longitude : -64.916944

Country : Canada

Local Date and Time : 15 Jul 2024 11:59

 

TAF (Terminal Aerodrome Forecast)

TAF CYZX 151140Z 1512/1612 25005KT P6SM BKN250 FM151700 29008KT P6SM FEW040 BKN250 FM152300 27008KT P6SM SCT080 SCT250 BECMG 1523/1601 24005KT FM160400 VRB03KT P6SM SCT012 BECMG 1605/1607 BKN012 FM160800 22005KT P6SM SCT006 OVC010 PROB30 1608/1610 1SM BR BKN003 FM161000 21008KT 6SM -SHRA -DZ BR SCT006 OVC010 RMK NXT FCST BY 151800Z

 

METAR (METeorological Aerodrome Report)

CYZX 151400Z 25007KT 15SM BKN250 28/20 A2985 RMK CI6 DENSITY ALT 1978FT SLP109

CYZX 151300Z 26005KT 15SM BKN250 26/19 A2986 RMK CI6 DENSITY ALT 1683FT SLP111

CYZX 151200Z 23006KT 15SM BKN250 23/17 A2987 RMK CI6 DENSITY ALT 1325FT SLP113

CYZX 151100Z 25005KT 15SM BKN250 20/17 A2986 RMK CI6 DENSITY ALT 1050FT SLP112